< < Back
Terminal Aerodrome Forecast


Current Version              Previous Versions:   1  2  3  4  5  6  7  8  9  

Terminal Aerodrome Forecast

385
FTUS42 KTAE 301700
TAFTLH
TAF
KTLH 301739Z 3018/0118 05005KT P6SM BKN015
     FM302000 05005KT P6SM BKN025
     FM302200 05005KT P6SM BKN035
     FM010900 06004KT 4SM BR SCT004
     FM011300 10006KT P6SM SCT035=

Latest METAR

763
SAUS80 KWBC 012200 RRB
MTRTLH
METAR KTLH 012153Z 09006KT 10SM SCT045 SCT250 28/19 A2994 RMK AO2 SLP136
T02830194


USA.gov is the U.S. government's official web portal to all federal, state and local government web resources and services.